Time;durP1;ratioP1;P1;durP2;ratioP2;P2;SDS_P1;SDS_P2;PMS_P1;PMS_P2;Temp;Humidity;BMP_temperature;BMP_pressure;BME280_temperature;BME280_humidity;BME280_pressure;Samples;Min_cycle;Max_cycle;Signal;HPM_P1;HPM_P2
2022/05/24 00:01:20;;;;;;;5.85;2.63;;;;;;;20.70;35.63;100686.53;5047734;28;20034;-93
2022/05/24 00:03:45;;;;;;;4.63;2.60;;;;;;;20.67;36.44;100697.34;5047533;28;20037;-92
2022/05/24 00:06:12;;;;;;;6.78;2.50;;;;;;;20.53;36.81;100698.56;4998172;28;20029;-91
2022/05/24 00:08:37;;;;;;;5.10;2.30;;;;;;;20.43;37.12;100686.38;4997941;28;20410;-91
2022/05/24 00:11:02;;;;;;;4.90;2.80;;;;;;;20.18;37.34;100650.94;5047419;28;20029;-93
2022/05/24 00:13:28;;;;;;;7.88;3.00;;;;;;;20.32;38.13;100687.31;5064266;28;20030;-92
2022/05/24 00:15:53;;;;;;;5.28;2.78;;;;;;;20.11;38.59;100690.03;5047493;28;20033;-94
2022/05/24 00:18:22;;;;;;;4.97;3.40;;;;;;;20.07;39.28;100701.78;5014328;28;20068;-91
2022/05/24 00:20:49;;;;;;;6.82;3.60;;;;;;;19.72;40.66;100692.53;5030988;28;20426;-92
2022/05/24 00:23:15;;;;;;;6.32;3.55;;;;;;;19.67;41.47;100693.91;5063706;28;20479;-90
2022/05/24 00:25:43;;;;;;;5.97;4.00;;;;;;;19.53;42.07;100686.34;5047348;28;20110;-92
2022/05/24 00:28:09;;;;;;;5.25;3.58;;;;;;;19.35;42.53;100689.56;5030812;28;20057;-92
2022/05/24 00:30:35;;;;;;;7.50;3.65;;;;;;;19.20;43.72;100704.81;5030973;28;20057;-91
2022/05/24 00:33:00;;;;;;;11.57;4.20;;;;;;;19.09;44.10;100702.25;5013974;28;20485;-90
2022/05/24 00:35:25;;;;;;;4.32;3.83;;;;;;;19.09;44.65;100709.28;5063651;28;20025;-92
2022/05/24 00:37:51;;;;;;;6.15;3.50;;;;;;;18.96;45.01;100714.69;5014156;28;20029;-93
2022/05/24 00:40:46;;;;;;;6.13;3.55;;;;;;;18.89;45.53;100719.63;5030511;28;20065;-91
2022/05/24 00:43:31;;;;;;;8.32;3.97;;;;;;;18.80;45.77;100727.41;5030621;28;20076;-91
2022/05/24 00:46:05;;;;;;;7.05;3.95;;;;;;;18.82;45.87;100717.63;5030479;28;20128;-93
2022/05/24 00:48:35;;;;;;;8.60;3.95;;;;;;;18.78;46.32;100726.69;5047784;28;20017;-91
2022/05/24 00:51:01;;;;;;;6.97;4.00;;;;;;;18.50;46.82;100720.22;5046755;28;20108;-90
2022/05/24 00:53:48;;;;;;;11.75;4.18;;;;;;;18.59;47.10;100737.81;5013954;28;20033;-93
2022/05/24 00:56:18;;;;;;;9.18;4.00;;;;;;;18.57;46.91;100730.06;5030668;28;20037;-91
2022/05/24 00:58:53;;;;;;;7.45;4.07;;;;;;;18.46;47.74;100735.34;5014670;28;20512;-90
2022/05/24 01:01:24;;;;;;;7.93;4.20;;;;;;;18.41;48.29;100745.38;5031918;28;20036;-92
2022/05/24 01:03:50;;;;;;;9.27;4.93;;;;;;;18.40;48.44;100742.88;5067853;28;20384;-93
2022/05/24 01:06:15;;;;;;;9.13;4.43;;;;;;;18.23;48.93;100752.06;5050844;28;20049;-92
2022/05/24 01:08:41;;;;;;;6.75;4.50;;;;;;;18.10;49.32;100751.38;5051099;28;20029;-91
2022/05/24 01:11:06;;;;;;;7.38;4.43;;;;;;;17.80;49.72;100705.69;5017892;28;20041;-91
2022/05/24 01:13:32;;;;;;;7.35;4.18;;;;;;;18.09;49.76;100749.69;5017931;28;20026;-92
2022/05/24 01:15:57;;;;;;;7.75;4.72;;;;;;;17.99;50.25;100749.56;5067456;28;20025;-90
2022/05/24 01:18:24;;;;;;;10.40;4.90;;;;;;;17.93;50.44;100740.41;5017492;28;20029;-91
2022/05/24 01:20:55;;;;;;;9.60;4.93;;;;;;;17.87;50.74;100730.41;5050512;28;20029;-91
2022/05/24 01:23:31;;;;;;;9.60;4.63;;;;;;;17.92;50.71;100735.31;5018227;28;20037;-92
2022/05/24 01:26:03;;;;;;;7.53;4.72;;;;;;;17.81;50.84;100740.56;5050810;28;20061;-91
2022/05/24 01:28:42;;;;;;;7.75;5.00;;;;;;;17.86;50.89;100764.56;5051433;28;20506;-92
2022/05/24 01:31:07;;;;;;;10.32;4.57;;;;;;;17.73;51.32;100764.69;5034050;28;20057;-92
2022/05/24 01:36:17;;;;;;;11.93;5.15;;;;;;;17.65;51.71;100761.78;5033864;28;20079;-92
2022/05/24 01:38:51;;;;;;;6.28;4.45;;;;;;;17.42;52.05;100732.16;5033905;28;20029;-91
2022/05/24 01:41:30;;;;;;;17.80;5.35;;;;;;;17.60;52.00;100761.28;5033967;28;20427;-91
2022/05/24 01:43:56;;;;;;;10.63;5.20;;;;;;;17.60;52.24;100774.38;5017489;28;20025;-92
2022/05/24 01:46:26;;;;;;;8.18;4.75;;;;;;;17.55;52.22;100779.13;5033544;28;20521;-92
2022/05/24 01:48:55;;;;;;;6.07;4.70;;;;;;;17.59;52.21;100788.41;5017355;28;20025;-92
2022/05/24 01:51:23;;;;;;;8.20;5.00;;;;;;;17.36;52.60;100756.97;5033914;28;20445;-91
2022/05/24 01:53:50;;;;;;;7.10;4.93;;;;;;;17.38;52.75;100770.75;5050440;28;20029;-91
2022/05/24 01:56:18;;;;;;;8.32;5.10;;;;;;;17.42;53.03;100776.59;5049983;28;20111;-92
2022/05/24 01:58:47;;;;;;;10.93;5.43;;;;;;;17.43;52.94;100775.66;5050586;28;20021;-92
2022/05/24 02:01:22;;;;;;;7.85;5.22;;;;;;;17.43;53.03;100779.09;5050330;28;20021;-92
2022/05/24 02:03:47;;;;;;;10.15;5.78;;;;;;;17.37;52.93;100784.78;5001249;28;20029;-91
2022/05/24 02:06:24;;;;;;;9.45;5.90;;;;;;;17.33;53.36;100783.34;5034415;28;20029;-90
2022/05/24 02:08:50;;;;;;;8.80;5.25;;;;;;;17.39;53.31;100787.28;5017103;28;20498;-92
2022/05/24 02:11:17;;;;;;;13.55;6.00;;;;;;;17.32;53.52;100789.53;5016807;28;20138;-91
2022/05/24 02:13:45;;;;;;;13.35;6.78;;;;;;;17.29;53.42;100788.91;5016155;28;20037;-91
2022/05/24 02:16:14;;;;;;;10.98;7.32;;;;;;;17.30;53.46;100794.03;5049914;28;20030;-92
2022/05/24 02:18:40;;;;;;;11.77;7.18;;;;;;;17.29;53.49;100800.19;5016711;28;20042;-90
2022/05/24 02:21:06;;;;;;;10.98;6.57;;;;;;;17.24;53.85;100801.50;5033109;28;20044;-91
2022/05/24 02:23:44;;;;;;;10.75;5.85;;;;;;;17.14;54.25;100796.13;5016664;28;20068;-91
2022/05/24 02:26:10;;;;;;;12.30;6.25;;;;;;;17.18;54.02;100810.63;5034240;28;20033;-91
2022/05/24 02:28:36;;;;;;;11.60;6.07;;;;;;;17.21;53.79;100802.56;5032981;28;20030;-92
2022/05/24 02:31:07;;;;;;;9.77;5.28;;;;;;;17.21;54.05;100794.72;5033108;28;20446;-91
2022/05/24 02:33:32;;;;;;;8.98;5.38;;;;;;;17.12;54.21;100800.63;5016549;28;20025;-91
2022/05/24 02:35:58;;;;;;;10.85;5.70;;;;;;;16.98;54.31;100798.19;5016381;28;20032;-92
2022/05/24 02:38:24;;;;;;;8.07;5.38;;;;;;;16.91;54.59;100809.09;5032857;28;20033;-92
2022/05/24 02:43:33;;;;;;;9.23;5.10;;;;;;;16.77;54.97;100785.72;5060843;28;20035;-90
2022/05/24 02:45:59;;;;;;;12.90;5.32;;;;;;;16.83;55.08;100800.97;5032310;28;20053;-91
2022/05/24 02:48:24;;;;;;;10.95;5.25;;;;;;;16.78;55.31;100803.06;5049135;28;20091;-92
2022/05/24 02:50:49;;;;;;;9.88;4.93;;;;;;;16.71;55.15;100788.78;5016119;28;20030;-92
2022/05/24 02:53:15;;;;;;;11.02;5.15;;;;;;;16.69;55.42;100788.06;5049132;28;20434;-90
2022/05/24 02:55:40;;;;;;;10.05;5.32;;;;;;;16.79;55.04;100796.91;5065629;28;20036;-91
2022/05/24 02:58:06;;;;;;;8.40;5.35;;;;;;;16.82;55.03;100791.47;5032342;28;20034;-92
2022/05/24 03:00:32;;;;;;;12.55;5.75;;;;;;;16.78;55.46;100789.16;5015461;28;20033;-90
2022/05/24 03:02:57;;;;;;;10.77;5.65;;;;;;;16.68;55.19;100786.38;5015617;28;20561;-92
2022/05/24 03:05:23;;;;;;;9.68;5.68;;;;;;;16.72;55.24;100790.47;5015882;28;20040;-91
2022/05/24 03:10:33;;;;;;;7.82;5.10;;;;;;;16.70;55.93;100799.34;5046202;28;20434;-92
2022/05/24 03:15:43;;;;;;;9.40;5.00;;;;;;;16.59;55.95;100784.41;5017651;28;20100;-90
2022/05/24 03:18:11;;;;;;;9.75;5.30;;;;;;;16.71;55.82;100791.38;5048452;28;20056;-90
2022/05/24 03:20:37;;;;;;;9.68;5.60;;;;;;;16.74;55.64;100801.63;5015657;28;20461;-93
2022/05/24 03:23:03;;;;;;;11.77;5.75;;;;;;;16.73;55.63;100794.75;5031952;28;20064;-90
2022/05/24 03:25:31;;;;;;;11.85;5.47;;;;;;;16.66;55.80;100809.16;5014491;28;20029;-93
2022/05/24 03:27:57;;;;;;;10.85;5.88;;;;;;;16.59;55.81;100818.34;5015675;28;20021;-91
2022/05/24 03:30:22;;;;;;;9.38;5.70;;;;;;;16.52;55.78;100812.75;5015148;28;20117;-91
2022/05/24 03:32:49;;;;;;;11.90;6.13;;;;;;;16.54;56.38;100828.31;5031927;28;20025;-92
2022/05/24 03:35:14;;;;;;;12.63;5.75;;;;;;;16.45;56.16;100827.19;5048753;28;20029;-93
2022/05/24 03:37:41;;;;;;;11.63;5.78;;;;;;;16.41;56.36;100827.47;5015236;28;20045;-92
2022/05/24 03:40:07;;;;;;;6.05;5.10;;;;;;;16.34;56.66;100830.53;5048020;28;20024;-92
2022/05/24 03:42:33;;;;;;;8.60;5.38;;;;;;;16.31;56.68;100827.28;5015048;28;20033;-91
2022/05/24 03:44:58;;;;;;;8.60;5.90;;;;;;;16.24;57.20;100823.47;5030883;28;20060;-92
2022/05/24 03:47:24;;;;;;;7.85;5.60;;;;;;;16.29;57.04;100843.06;5031706;28;20474;-92
2022/05/24 03:49:49;;;;;;;11.80;5.40;;;;;;;16.30;57.05;100839.50;5031617;28;20034;-93
2022/05/24 03:52:15;;;;;;;8.30;5.43;;;;;;;16.32;56.88;100853.31;5032747;28;20083;-92
2022/05/24 03:54:40;;;;;;;7.95;5.72;;;;;;;16.30;56.73;100859.56;5030856;28;20037;-92
2022/05/24 03:59:50;;;;;;;9.20;5.63;;;;;;;16.47;56.36;100877.50;5017246;28;20041;-91
2022/05/24 04:02:15;;;;;;;7.15;5.40;;;;;;;16.43;56.62;100864.78;5031366;28;20426;-91
2022/05/24 04:04:41;;;;;;;8.38;5.45;;;;;;;16.34;56.63;100855.81;5047995;28;20025;-89
2022/05/24 04:07:06;;;;;;;9.50;5.55;;;;;;;16.35;56.89;100873.97;5031018;28;20033;-92
2022/05/24 04:09:33;;;;;;;7.22;5.32;;;;;;;16.47;56.72;100889.72;5014563;28;20474;-92
2022/05/24 04:11:58;;;;;;;7.55;5.50;;;;;;;16.34;56.83;100880.16;5014713;28;20029;-90
2022/05/24 04:14:24;;;;;;;7.70;5.32;;;;;;;16.40;56.87;100891.09;5014415;28;20032;-92
2022/05/24 04:16:49;;;;;;;7.30;5.70;;;;;;;16.32;57.19;100892.47;5047303;28;20033;-92
2022/05/24 04:19:15;;;;;;;8.23;5.30;;;;;;;16.23;56.85;100869.59;5014748;28;20025;-90
2022/05/24 04:21:40;;;;;;;9.77;5.35;;;;;;;16.45;56.76;100889.84;5030968;28;20025;-94
2022/05/24 04:24:06;;;;;;;9.77;6.47;;;;;;;16.51;56.79;100885.97;5031023;28;20034;-90
2022/05/24 04:26:31;;;;;;;11.30;6.65;;;;;;;16.71;56.40;100895.88;5030808;28;20538;-92
2022/05/24 04:28:57;;;;;;;10.57;5.82;;;;;;;16.74;56.11;100894.84;5014106;28;20033;-91
2022/05/24 04:31:23;;;;;;;8.23;5.43;;;;;;;16.74;55.85;100893.06;5047453;28;20025;-90
2022/05/24 04:33:48;;;;;;;6.85;5.15;;;;;;;16.83;55.72;100884.59;5031881;28;20029;-90
2022/05/24 04:36:14;;;;;;;9.13;5.22;;;;;;;16.84;55.77;100906.31;5030207;28;20022;-91
2022/05/24 04:38:39;;;;;;;8.57;5.18;;;;;;;16.88;54.98;100898.16;5014134;28;20036;-92
2022/05/24 04:43:49;;;;;;;9.57;6.43;;;;;;;16.86;54.42;100900.03;5031087;28;20422;-92
2022/05/24 04:46:16;;;;;;;9.68;5.50;;;;;;;16.96;54.85;100910.69;5030581;28;20457;-90
2022/05/24 04:48:41;;;;;;;8.65;5.45;;;;;;;16.95;54.54;100909.00;5014081;28;20041;-91
2022/05/24 04:51:06;;;;;;;9.68;6.07;;;;;;;17.03;54.30;100891.00;5047120;28;20029;-93
2022/05/24 04:53:32;;;;;;;10.30;5.93;;;;;;;17.22;53.97;100906.19;5014260;28;20040;-92
2022/05/24 04:55:57;;;;;;;8.95;5.70;;;;;;;17.26;53.68;100915.47;5046941;28;20029;-90
2022/05/24 04:58:23;;;;;;;8.23;5.22;;;;;;;17.20;53.29;100902.84;5030025;28;20033;-91
2022/05/24 05:00:49;;;;;;;10.93;5.88;;;;;;;17.24;52.85;100896.47;5014214;28;20728;-91
2022/05/24 05:03:17;;;;;;;8.50;5.22;;;;;;;17.22;53.25;100910.59;5046794;28;20056;-91
2022/05/24 05:05:43;;;;;;;7.03;5.00;;;;;;;17.23;53.20;100910.47;5014135;28;20032;-92
2022/05/24 05:08:08;;;;;;;8.63;5.10;;;;;;;17.36;53.21;100906.03;5029862;28;20112;-91
2022/05/24 05:10:34;;;;;;;7.97;5.35;;;;;;;17.45;52.92;100912.38;5030302;28;20033;-90
2022/05/24 05:13:03;;;;;;;7.90;5.80;;;;;;;17.23;53.03;100905.25;5013604;28;20021;-90
2022/05/24 05:15:29;;;;;;;8.50;5.20;;;;;;;17.17;53.40;100913.53;5013723;28;20087;-94
2022/05/24 05:18:04;;;;;;;7.70;5.10;;;;;;;17.20;53.47;100923.75;4997225;28;20029;-90
2022/05/24 05:20:31;;;;;;;10.25;5.30;;;;;;;17.30;53.18;100929.16;5030192;28;20031;-91
2022/05/24 05:22:56;;;;;;;12.35;5.72;;;;;;;17.32;53.20;100925.50;5013834;28;20030;-90
2022/05/24 05:25:22;;;;;;;8.00;5.22;;;;;;;17.39;53.29;100934.56;5029854;28;20033;-92
2022/05/24 05:27:47;;;;;;;9.57;5.22;;;;;;;17.16;53.27;100912.69;5046405;28;20026;-89
2022/05/24 05:32:57;;;;;;;9.65;5.22;;;;;;;17.27;53.51;100918.94;5044106;28;20084;-91
2022/05/24 05:35:22;;;;;;;8.25;5.35;;;;;;;17.51;52.71;100922.41;5029970;28;20034;-91
2022/05/24 05:37:48;;;;;;;9.23;5.15;;;;;;;17.45;52.80;100905.34;5046520;28;20029;-91
2022/05/24 05:40:14;;;;;;;7.82;5.78;;;;;;;17.73;52.38;100921.66;5062782;28;20038;-92
2022/05/24 05:42:39;;;;;;;7.63;5.80;;;;;;;17.77;52.24;100930.94;5029914;28;20109;-91
2022/05/24 05:45:06;;;;;;;11.23;5.35;;;;;;;17.65;52.21;100913.53;5029800;28;20128;-91
2022/05/24 05:47:32;;;;;;;7.55;5.75;;;;;;;17.73;52.15;100937.38;5046394;28;20030;-90
2022/05/24 05:49:57;;;;;;;6.03;5.35;;;;;;;17.58;52.60;100917.53;5049733;28;20416;-90
2022/05/24 05:52:23;;;;;;;8.27;5.85;;;;;;;17.60;52.92;100928.72;5034404;28;20025;-92
2022/05/24 05:54:48;;;;;;;10.18;6.07;;;;;;;17.38;52.69;100917.19;5016467;28;20029;-89
2022/05/24 05:57:14;;;;;;;13.68;6.03;;;;;;;17.51;52.48;100945.09;5033401;28;20029;-91
2022/05/24 05:59:40;;;;;;;11.85;6.28;;;;;;;17.56;52.62;100935.13;5050054;28;20029;-91
2022/05/24 06:02:06;;;;;;;9.70;5.80;;;;;;;17.66;52.96;100941.34;5032935;28;20478;-90
2022/05/24 06:04:31;;;;;;;10.43;6.00;;;;;;;17.34;52.69;100934.06;5049849;28;20027;-91
2022/05/24 06:06:57;;;;;;;9.38;6.03;;;;;;;17.58;52.88;100935.84;5049431;28;20033;-90
2022/05/24 06:09:24;;;;;;;8.30;5.82;;;;;;;17.62;53.11;100939.91;5016225;28;20025;-90
2022/05/24 06:11:49;;;;;;;8.25;5.80;;;;;;;17.59;53.01;100933.09;5033101;28;20125;-90
2022/05/24 06:14:15;;;;;;;9.00;5.72;;;;;;;17.74;52.52;100937.25;5032707;28;20477;-91
2022/05/24 06:16:41;;;;;;;11.75;6.22;;;;;;;17.86;52.81;100935.50;5016447;28;20030;-91
2022/05/24 06:19:07;;;;;;;10.93;5.70;;;;;;;17.80;52.50;100928.13;5033030;28;20079;-90
2022/05/24 06:21:35;;;;;;;8.93;6.45;;;;;;;17.99;52.32;100923.19;5016212;28;20029;-92
2022/05/24 06:24:05;;;;;;;9.18;5.80;;;;;;;18.17;51.48;100935.81;5049618;28;20035;-90
2022/05/24 06:26:30;;;;;;;9.55;6.22;;;;;;;18.28;51.50;100917.50;5035549;28;20048;-92
2022/05/24 06:28:57;;;;;;;10.93;6.20;;;;;;;18.50;51.63;100924.56;5034118;28;20025;-90
2022/05/24 06:31:23;;;;;;;13.13;6.10;;;;;;;18.42;51.38;100903.38;5032653;28;20033;-90
2022/05/24 06:33:48;;;;;;;8.00;5.90;;;;;;;18.39;51.34;100925.41;4999739;28;20402;-91
2022/05/24 06:36:14;;;;;;;9.40;5.65;;;;;;;18.38;51.11;100926.31;5032542;28;20033;-89
2022/05/24 06:38:39;;;;;;;8.55;6.13;;;;;;;18.46;51.35;100934.44;5032328;28;20060;-92
2022/05/24 06:41:05;;;;;;;10.05;6.15;;;;;;;18.56;51.19;100945.88;5032451;28;20032;-91
2022/05/24 06:43:31;;;;;;;11.23;6.38;;;;;;;18.49;49.87;100915.88;5049098;28;20044;-92
2022/05/24 06:45:57;;;;;;;8.32;6.18;;;;;;;18.52;51.16;100952.31;5048960;28;20045;-90
2022/05/24 06:48:22;;;;;;;8.00;5.90;;;;;;;18.53;51.12;100953.97;5032029;28;20510;-91
2022/05/24 06:50:48;;;;;;;12.07;5.88;;;;;;;18.62;51.43;100948.03;5048538;28;20033;-90
2022/05/24 06:53:13;;;;;;;10.38;5.70;;;;;;;18.69;50.97;100926.63;5032039;28;20034;-91
2022/05/24 06:55:39;;;;;;;11.23;5.78;;;;;;;18.88;50.56;100932.94;5048751;28;20447;-91
2022/05/24 06:58:05;;;;;;;9.15;5.90;;;;;;;19.17;50.22;100943.72;5048635;28;20383;-90
2022/05/24 07:03:15;;;;;;;7.90;5.85;;;;;;;19.19;49.57;100931.31;5032002;28;20091;-91
2022/05/24 07:05:41;;;;;;;9.50;5.90;;;;;;;19.04;49.38;100922.03;5032109;28;20038;-90
2022/05/24 07:08:07;;;;;;;10.15;5.75;;;;;;;19.24;49.42;100922.22;5048424;28;20068;-90
2022/05/24 07:10:33;;;;;;;10.45;6.40;;;;;;;19.18;49.29;100913.91;5032081;28;20029;-92
2022/05/24 07:13:05;;;;;;;12.68;6.10;;;;;;;19.17;49.64;100914.88;5015402;28;20052;-91
2022/05/24 07:15:31;;;;;;;;;;;;;;;19.38;49.01;100930.66;5049105;28;20497;-90
2022/05/24 07:17:56;;;;;;;7.05;5.95;;;;;;;19.41;49.12;100932.19;5048352;28;19960;-90
2022/05/24 07:20:23;;;;;;;10.65;6.07;;;;;;;19.44;49.25;100939.81;5015276;28;20046;-92
2022/05/24 07:22:48;;;;;;;7.85;6.43;;;;;;;19.20;49.51;100929.53;5031480;28;20025;-91
2022/05/24 07:25:15;;;;;;;10.70;5.95;;;;;;;19.32;49.44;100931.16;5047966;28;20457;-91
2022/05/24 07:27:41;;;;;;;9.70;6.13;;;;;;;19.51;49.49;100929.66;5048279;28;20029;-91
2022/05/24 07:30:08;;;;;;;8.07;6.13;;;;;;;19.56;48.98;100912.59;5064605;28;20025;-92
2022/05/24 07:32:34;;;;;;;11.25;6.13;;;;;;;19.72;48.33;100922.69;5047944;28;20040;-94
2022/05/24 07:34:59;;;;;;;9.20;5.97;;;;;;;19.89;48.26;100935.25;5014894;28;20026;-91
2022/05/24 07:37:25;;;;;;;10.82;6.68;;;;;;;19.81;47.96;100934.22;5031273;28;20556;-91
2022/05/24 07:45:47;;;;;;;10.02;6.78;;;;;;;19.79;48.44;100938.78;5031594;28;20029;-91
2022/05/24 07:48:04;;;;;;;10.57;6.38;;;;;;;20.08;48.12;100939.81;5031312;28;20467;-93
2022/05/24 07:50:29;;;;;;;11.30;6.00;;;;;;;20.23;47.79;100941.13;5014508;28;20044;-91
2022/05/24 07:52:55;;;;;;;8.68;6.35;;;;;;;20.37;47.18;100945.22;5031160;28;20029;-93
2022/05/24 07:55:20;;;;;;;9.88;6.22;;;;;;;20.19;47.90;100947.63;5031002;28;20502;-91
2022/05/24 07:57:45;;;;;;;8.57;6.07;;;;;;;20.35;47.67;100957.63;5030798;28;20025;-90
2022/05/24 08:00:12;;;;;;;9.73;6.68;;;;;;;20.41;47.47;100959.75;5014409;28;20025;-93
2022/05/24 08:02:38;;;;;;;8.88;6.57;;;;;;;20.36;47.61;100963.75;5047424;28;20028;-93
2022/05/24 08:05:05;;;;;;;10.27;6.43;;;;;;;20.29;47.79;100959.00;5046948;28;20022;-91
2022/05/24 08:07:31;;;;;;;7.40;6.45;;;;;;;20.33;47.34;100970.91;5063494;28;20030;-90
2022/05/24 08:09:57;;;;;;;11.30;6.60;;;;;;;20.34;48.09;100969.13;5014311;28;20065;-91
2022/05/24 08:12:22;;;;;;;8.90;5.90;;;;;;;20.33;48.26;100978.78;5046837;28;20029;-91
2022/05/24 08:14:48;;;;;;;8.45;6.28;;;;;;;20.24;47.78;100984.00;5047335;28;20482;-92
2022/05/24 08:17:13;;;;;;;8.23;6.40;;;;;;;20.04;48.07;100985.66;5046973;28;20029;-90
2022/05/24 08:19:39;;;;;;;8.75;5.95;;;;;;;20.16;48.54;101020.59;5063861;28;20495;-90
2022/05/24 08:22:05;;;;;;;9.48;5.72;;;;;;;20.09;49.01;101046.53;5046836;28;20113;-92
2022/05/24 08:24:30;;;;;;;10.77;6.13;;;;;;;20.16;49.41;101063.44;5013864;28;20462;-91
2022/05/24 08:26:56;;;;;;;13.55;6.65;;;;;;;20.03;48.72;101073.28;5030775;28;20030;-92
2022/05/24 08:29:21;;;;;;;8.73;5.47;;;;;;;20.07;48.00;101093.09;5047014;28;20415;-92
2022/05/24 08:31:47;;;;;;;8.48;5.40;;;;;;;19.96;47.71;101093.09;5013955;28;20030;-91
2022/05/24 08:34:14;;;;;;;13.98;6.10;;;;;;;19.94;47.96;101068.78;5029962;28;20087;-91
2022/05/24 08:36:39;;;;;;;10.05;5.25;;;;;;;19.97;47.63;101058.88;5030350;28;20032;-90
2022/05/24 08:39:05;;;;;;;8.10;5.03;;;;;;;19.76;48.07;101035.19;5030293;28;20030;-89
2022/05/24 08:41:51;;;;;;;9.95;5.35;;;;;;;19.58;48.37;100988.59;5046714;28;20026;-91
2022/05/24 08:49:59;;;;;;;6.93;5.78;;;;;;;20.01;48.26;100978.03;5044107;28;20120;-89
2022/05/24 08:52:37;;;;;;;9.35;5.10;;;;;;;20.13;48.14;100945.50;5046884;28;20057;-91
2022/05/24 08:55:03;;;;;;;9.75;5.38;;;;;;;20.05;47.58;100922.50;5014677;28;20068;-91
2022/05/24 08:57:51;;;;;;;10.35;5.55;;;;;;;20.19;48.08;100897.69;5046811;28;20114;-91
2022/05/24 09:00:19;;;;;;;9.07;5.60;;;;;;;20.34;47.99;100927.06;5014186;28;20395;-93
2022/05/24 09:02:46;;;;;;;8.07;5.25;;;;;;;20.25;47.40;100962.84;5046690;28;20036;-91
2022/05/24 09:05:19;;;;;;;8.85;5.07;;;;;;;20.33;47.88;101018.19;5013479;28;20026;-92
2022/05/24 09:07:49;;;;;;;11.07;5.38;;;;;;;20.41;48.93;101033.34;5030717;28;20410;-90
2022/05/24 09:10:20;;;;;;;7.72;4.78;;;;;;;20.31;47.65;101008.78;5046688;28;20482;-90
2022/05/24 09:12:59;;;;;;;6.40;4.45;;;;;;;20.42;46.90;100992.13;5046365;28;20032;-91
2022/05/24 09:16:15;;;;;;;8.25;4.93;;;;;;;20.56;46.93;101008.44;5030884;28;20489;-92
2022/05/24 09:19:04;;;;;;;12.48;5.30;;;;;;;20.69;46.64;101002.97;5030664;28;20032;-91
2022/05/24 09:21:31;;;;;;;9.23;4.88;;;;;;;20.50;46.59;100993.19;5014829;28;20509;-90
2022/05/24 09:24:09;;;;;;;8.98;4.85;;;;;;;20.23;48.20;100970.03;5050553;28;20116;-90
2022/05/24 09:26:35;;;;;;;14.05;5.22;;;;;;;20.07;50.51;100982.78;5034885;28;20025;-92
2022/05/24 09:29:11;;;;;;;8.43;4.88;;;;;;;20.02;51.30;101003.34;5033651;28;20479;-91
2022/05/24 09:31:42;;;;;;;13.30;5.57;;;;;;;20.05;51.62;101000.44;5050592;28;20025;-93
2022/05/24 09:34:16;;;;;;;8.55;5.38;;;;;;;19.99;51.73;101000.97;5017490;28;20025;-90
2022/05/24 09:37:00;;;;;;;9.10;5.32;;;;;;;19.90;51.21;100960.53;5034392;28;20029;-91
2022/05/24 09:39:37;;;;;;;6.93;4.88;;;;;;;20.32;50.12;101000.78;5033797;28;20026;-92
2022/05/24 09:42:11;;;;;;;7.53;4.97;;;;;;;20.32;49.25;101003.41;5017042;28;20030;-92
2022/05/24 09:44:47;;;;;;;6.45;5.03;;;;;;;20.61;49.05;101000.16;5050406;28;20050;-92
2022/05/24 09:47:35;;;;;;;7.28;4.85;;;;;;;20.87;47.40;100998.75;5033119;28;20028;-93
2022/05/24 09:50:26;;;;;;;9.48;5.32;;;;;;;21.12;47.48;100993.97;5033813;28;20064;-91
2022/05/24 09:53:08;;;;;;;9.32;5.05;;;;;;;21.35;46.50;100998.09;5034364;28;20045;-91
2022/05/24 09:55:40;;;;;;;9.88;5.18;;;;;;;21.51;45.78;100989.66;5034719;28;20026;-91
2022/05/24 09:58:32;;;;;;;7.97;4.75;;;;;;;21.70;44.86;100983.59;5033616;28;20033;-91
2022/05/24 10:01:10;;;;;;;9.35;4.78;;;;;;;21.97;43.65;100977.63;5032926;28;20045;-91
2022/05/24 10:03:37;;;;;;;7.00;4.57;;;;;;;22.11;43.26;100994.81;5049794;28;20025;-90
2022/05/24 10:06:14;;;;;;;8.40;4.93;;;;;;;22.32;43.98;100995.50;5049655;28;20033;-91
2022/05/24 10:08:41;;;;;;;8.45;5.10;;;;;;;22.38;42.82;100979.09;5066554;28;20030;-91
2022/05/24 10:11:13;;;;;;;7.88;5.30;;;;;;;22.37;43.51;100976.63;5032805;28;20022;-91
2022/05/24 10:13:43;;;;;;;10.00;5.57;;;;;;;22.49;43.02;100993.91;5050155;28;20111;-92
2022/05/24 10:16:15;;;;;;;9.77;5.10;;;;;;;22.29;43.99;100987.84;5049314;28;20041;-92
2022/05/24 10:19:08;;;;;;;12.13;5.55;;;;;;;22.36;43.53;100986.31;5049600;28;20032;-91
2022/05/24 10:21:44;;;;;;;11.75;4.95;;;;;;;22.47;43.29;100977.41;5017337;28;20044;-93
2022/05/24 10:24:24;;;;;;;7.47;5.88;;;;;;;22.42;43.80;100985.78;5032996;28;20029;-91
2022/05/24 10:27:13;;;;;;;12.85;5.63;;;;;;;22.17;44.54;100981.09;5049345;28;20446;-91
2022/05/24 10:30:01;;;;;;;8.38;5.40;;;;;;;22.01;44.65;100966.66;5049659;28;20411;-90
2022/05/24 10:38:34;;;;;;;12.57;6.32;;;;;;;22.15;44.63;100981.25;5047003;28;20127;-92
2022/05/24 10:41:10;;;;;;;10.10;5.53;;;;;;;22.11;45.07;100976.38;5065814;28;20025;-91
2022/05/24 10:43:47;;;;;;;6.90;5.68;;;;;;;22.20;44.72;100978.16;5032436;28;20025;-91
2022/05/24 10:46:18;;;;;;;8.70;5.30;;;;;;;22.18;44.48;100985.38;5032641;28;20095;-92
2022/05/24 10:48:51;;;;;;;7.82;5.78;;;;;;;22.15;44.68;100975.97;5015821;28;20040;-93
2022/05/24 10:51:48;;;;;;;8.27;5.53;;;;;;;22.11;44.60;100979.00;5032416;28;20032;-90
2022/05/24 10:54:22;;;;;;;10.20;6.10;;;;;;;22.19;44.27;100981.78;5031478;28;20033;-92
2022/05/24 10:56:51;;;;;;;8.98;5.50;;;;;;;22.02;44.88;100976.25;5033252;28;20032;-89
2022/05/24 10:59:23;;;;;;;8.20;5.50;;;;;;;22.08;44.74;100981.94;5015541;28;20530;-93
2022/05/24 11:01:55;;;;;;;7.65;5.60;;;;;;;22.11;44.61;100966.66;5033054;28;20491;-90
2022/05/24 11:04:22;;;;;;;;;;;;;;;22.37;44.49;100972.16;5048993;28;20076;-92
2022/05/24 11:06:58;;;;;;;9.95;5.63;;;;;;;22.39;44.11;100967.59;5065188;28;20004;-91
2022/05/24 11:09:24;;;;;;;9.50;5.68;;;;;;;22.35;43.75;100954.84;5048617;28;20106;-91
2022/05/24 11:12:09;;;;;;;9.10;5.60;;;;;;;22.67;44.92;100968.47;5015116;28;20133;-90
2022/05/24 11:15:07;;;;;;;7.03;5.47;;;;;;;22.98;44.37;100955.84;5048411;28;20048;-90
2022/05/24 11:17:33;;;;;;;8.82;5.70;;;;;;;23.13;43.80;100943.84;5050123;28;20108;-91
2022/05/24 11:19:59;;;;;;;9.55;5.18;;;;;;;23.35;43.12;100947.84;5015889;28;20035;-92
2022/05/24 11:22:40;;;;;;;7.13;5.40;;;;;;;23.54;42.69;100946.88;5015285;28;20025;-91
2022/05/24 11:25:25;;;;;;;11.63;5.45;;;;;;;23.51;42.93;100935.78;5032750;28;20033;-92
2022/05/24 11:28:10;;;;;;;8.18;5.45;;;;;;;23.42;43.22;100926.97;5031534;28;20100;-90
2022/05/24 11:30:37;;;;;;;6.07;5.13;;;;;;;23.47;42.66;100922.88;5031476;28;20069;-91
2022/05/24 11:33:03;;;;;;;7.70;5.45;;;;;;;23.43;42.00;100912.78;5015023;28;20062;-92
2022/05/24 11:35:50;;;;;;;6.35;5.00;;;;;;;23.27;43.64;100925.81;5064438;28;20025;-90
2022/05/24 11:38:22;;;;;;;8.63;5.20;;;;;;;23.53;42.72;100929.38;5050126;28;20025;-90
2022/05/24 11:40:54;;;;;;;6.18;5.25;;;;;;;23.64;42.75;100936.25;5049040;28;20403;-92
2022/05/24 11:43:34;;;;;;;7.15;5.32;;;;;;;23.86;42.11;100932.31;5032132;28;20026;-90
2022/05/24 11:46:03;;;;;;;6.80;4.85;;;;;;;23.91;41.88;100925.59;5031269;28;20049;-92
2022/05/24 11:48:48;;;;;;;9.63;5.38;;;;;;;24.03;41.68;100923.50;5032311;28;20082;-91
2022/05/24 11:51:34;;;;;;;7.80;5.50;;;;;;;24.03;41.92;100915.59;5048972;28;20108;-93
2022/05/24 11:54:01;;;;;;;8.52;5.40;;;;;;;23.91;42.11;100922.13;5031216;28;20022;-90
2022/05/24 11:56:26;;;;;;;10.40;5.78;;;;;;;23.58;43.10;100884.84;5047285;28;20030;-90
2022/05/24 11:59:06;;;;;;;7.47;5.50;;;;;;;23.71;42.93;100900.34;5047419;28;20040;-90
2022/05/24 12:01:35;;;;;;;8.50;5.80;;;;;;;23.84;43.10;100910.50;5030824;28;20060;-92
2022/05/24 12:09:59;;;;;;;8.15;5.35;;;;;;;23.91;42.70;100888.59;5031754;28;20051;-89
2022/05/24 12:12:45;;;;;;;15.57;10.82;;;;;;;24.03;42.74;100899.72;5031813;28;20033;-92
2022/05/24 12:15:22;;;;;;;6.70;5.38;;;;;;;24.03;42.34;100897.09;5014094;28;20032;-92
2022/05/24 12:18:11;;;;;;;8.10;5.60;;;;;;;23.90;42.53;100904.59;5031636;28;20114;-90
2022/05/24 12:20:36;;;;;;;8.57;7.03;;;;;;;23.71;42.93;100880.03;5030716;28;20103;-90